Time;durP1;ratioP1;P1;durP2;ratioP2;P2;SDS_P1;SDS_P2;PMS_P1;PMS_P2;Temp;Humidity;BMP_temperature;BMP_pressure;BME280_temperature;BME280_humidity;BME280_pressure;Samples;Min_cycle;Max_cycle;Signal;HPM_P1;HPM_P2
2023/01/14 00:01:27;;;;;;;10.13;1.42;;;7.70;99.90;;;;;;5009155;28;20061;-74
2023/01/14 00:03:53;;;;;;;10.88;1.40;;;7.60;99.90;;;;;;5008515;28;20030;-72
2023/01/14 00:06:21;;;;;;;9.48;1.27;;;7.50;99.90;;;;;;5007834;28;20065;-74
2023/01/14 00:08:47;;;;;;;11.85;1.38;;;7.50;99.90;;;;;;5007723;28;20161;-73
2023/01/14 00:11:14;;;;;;;15.95;2.13;;;7.40;99.90;;;;;;5008761;28;20425;-73
2023/01/14 00:13:41;;;;;;;12.23;1.67;;;7.30;99.90;;;;;;5008095;28;20482;-72
2023/01/14 00:16:09;;;;;;;11.93;1.65;;;7.30;99.90;;;;;;5008589;28;20038;-73
2023/01/14 00:18:35;;;;;;;16.25;1.48;;;7.30;99.90;;;;;;5006668;28;20036;-74
2023/01/14 00:21:02;;;;;;;12.07;1.67;;;7.20;99.90;;;;;;5008828;28;20128;-75
2023/01/14 00:23:29;;;;;;;7.93;0.90;;;7.30;99.90;;;;;;5008089;28;20037;-72
2023/01/14 00:26:02;;;;;;;16.40;1.35;;;7.30;99.90;;;;;;5012323;28;20144;-73
2023/01/14 00:28:28;;;;;;;11.57;1.30;;;7.30;99.90;;;;;;5009749;28;20112;-72
2023/01/14 00:31:01;;;;;;;6.10;0.90;;;7.30;99.90;;;;;;5008790;28;20418;-74
2023/01/14 00:33:27;;;;;;;7.45;1.50;;;7.30;99.90;;;;;;5006596;28;20045;-72
2023/01/14 00:35:53;;;;;;;10.38;1.42;;;7.20;99.90;;;;;;5009188;28;20409;-74
2023/01/14 00:38:19;;;;;;;8.57;1.65;;;7.30;99.90;;;;;;5009527;28;20034;-73
2023/01/14 00:40:44;;;;;;;5.53;1.27;;;7.20;99.90;;;;;;5008372;28;20088;-73
2023/01/14 00:43:10;;;;;;;8.65;1.42;;;7.20;99.90;;;;;;5007422;28;20034;-72
2023/01/14 00:45:35;;;;;;;7.07;2.28;;;7.20;99.90;;;;;;5006848;28;20037;-74
2023/01/14 00:48:01;;;;;;;7.65;0.95;;;7.20;99.90;;;;;;5007318;28;20069;-74
2023/01/14 00:50:26;;;;;;;6.60;1.30;;;7.10;99.90;;;;;;5006597;28;20061;-71
2023/01/14 00:52:52;;;;;;;7.10;1.88;;;7.00;99.90;;;;;;5006985;28;20026;-72
2023/01/14 00:55:18;;;;;;;10.27;1.85;;;7.00;99.90;;;;;;5005133;28;20418;-73
2023/01/14 00:57:43;;;;;;;12.05;1.25;;;6.90;99.90;;;;;;5007811;28;20025;-72
2023/01/14 01:00:09;;;;;;;6.20;1.45;;;6.90;99.90;;;;;;5009045;28;20022;-72
2023/01/14 01:02:35;;;;;;;23.08;2.13;;;6.90;99.90;;;;;;4998153;28;20053;-72
2023/01/14 01:05:01;;;;;;;13.43;2.13;;;6.90;99.90;;;;;;5005460;28;20034;-74
2023/01/14 01:07:26;;;;;;;12.15;1.40;;;6.90;99.90;;;;;;5007818;28;20508;-73
2023/01/14 01:09:52;;;;;;;8.50;1.10;;;6.90;99.90;;;;;;5008893;28;20410;-72
2023/01/14 01:12:17;;;;;;;24.38;2.65;;;6.90;99.90;;;;;;5006768;28;20132;-73
2023/01/14 01:14:43;;;;;;;9.70;1.67;;;6.90;99.90;;;;;;5007591;28;20490;-72
2023/01/14 01:17:08;;;;;;;17.85;2.25;;;6.90;99.90;;;;;;5007627;28;20157;-73
2023/01/14 01:19:34;;;;;;;11.32;1.58;;;6.90;99.90;;;;;;5006409;28;20026;-73
2023/01/14 01:21:59;;;;;;;8.45;1.35;;;6.90;99.90;;;;;;5008761;28;20500;-74
2023/01/14 01:24:25;;;;;;;6.97;1.50;;;7.00;99.90;;;;;;5007299;28;20030;-73
2023/01/14 01:26:51;;;;;;;11.57;1.60;;;7.00;99.90;;;;;;5010857;28;20030;-73
2023/01/14 01:29:16;;;;;;;13.70;2.03;;;7.00;99.90;;;;;;5023289;28;20042;-73
2023/01/14 01:31:42;;;;;;;11.50;2.78;;;7.00;99.90;;;;;;5006246;28;20037;-76
2023/01/14 01:34:07;;;;;;;9.32;1.23;;;7.10;99.90;;;;;;5008137;28;20045;-73
2023/01/14 01:36:33;;;;;;;9.82;1.67;;;7.10;99.90;;;;;;5005493;28;20042;-72
2023/01/14 01:38:59;;;;;;;18.90;2.88;;;7.10;99.90;;;;;;5008652;28;20072;-71
2023/01/14 01:41:28;;;;;;;13.57;2.05;;;7.10;99.90;;;;;;5007832;28;20101;-72
2023/01/14 01:44:13;;;;;;;14.25;2.10;;;7.10;99.90;;;;;;5008097;28;20140;-73
2023/01/14 01:46:39;;;;;;;17.38;2.88;;;7.10;99.90;;;;;;5008287;28;20050;-73
2023/01/14 01:49:23;;;;;;;10.70;1.80;;;7.00;99.90;;;;;;5008655;28;20379;-74
2023/01/14 01:51:51;;;;;;;7.72;1.88;;;7.00;99.90;;;;;;5006488;28;20049;-73
2023/01/14 01:54:19;;;;;;;8.15;1.40;;;6.90;99.90;;;;;;5011013;28;20120;-73
2023/01/14 01:56:46;;;;;;;10.13;1.83;;;6.80;99.90;;;;;;5008577;28;20522;-74
2023/01/14 01:59:15;;;;;;;15.20;2.05;;;6.80;99.90;;;;;;5009507;28;20465;-74
2023/01/14 02:01:42;;;;;;;12.70;1.92;;;6.80;99.90;;;;;;5007317;28;20033;-73
2023/01/14 02:04:09;;;;;;;17.40;2.00;;;6.70;99.90;;;;;;5007689;28;20037;-74
2023/01/14 02:06:35;;;;;;;9.88;1.27;;;6.70;99.90;;;;;;5007012;28;20030;-75
2023/01/14 02:09:00;;;;;;;21.30;2.47;;;6.70;99.90;;;;;;5006930;28;20445;-72
2023/01/14 02:11:42;;;;;;;19.38;2.95;;;6.60;99.90;;;;;;5021439;28;20592;-73
2023/01/14 02:14:19;;;;;;;9.63;2.15;;;6.60;99.90;;;;;;5007677;28;20403;-73
2023/01/14 02:16:54;;;;;;;19.08;1.73;;;6.60;99.90;;;;;;5009842;28;20041;-72
2023/01/14 02:19:56;;;;;;;16.63;2.00;;;6.60;99.90;;;;;;5009053;28;20037;-72
2023/01/14 02:22:58;;;;;;;9.30;2.05;;;6.50;99.90;;;;;;5008567;28;20414;-74
2023/01/14 02:25:56;;;;;;;10.40;1.25;;;6.50;99.90;;;;;;5001883;28;20042;-73
2023/01/14 02:28:22;;;;;;;6.53;0.85;;;6.40;99.90;;;;;;5009270;28;20137;-75
2023/01/14 02:30:47;;;;;;;10.43;2.15;;;6.30;99.90;;;;;;5009397;28;20112;-74
2023/01/14 02:33:22;;;;;;;12.07;3.03;;;6.30;99.90;;;;;;5010679;28;20033;-74
2023/01/14 02:35:53;;;;;;;14.02;1.83;;;6.30;99.90;;;;;;5010226;28;20037;-74
2023/01/14 02:38:29;;;;;;;18.35;3.70;;;6.30;99.90;;;;;;5007655;28;20034;-75
2023/01/14 02:41:02;;;;;;;22.73;2.90;;;6.20;99.90;;;;;;5005092;28;20687;-73
2023/01/14 02:44:07;;;;;;;8.80;1.50;;;6.20;99.90;;;;;;5009701;28;20046;-73
2023/01/14 02:46:44;;;;;;;13.18;1.48;;;6.20;99.90;;;;;;5007763;28;20038;-73
2023/01/14 02:49:14;;;;;;;12.95;2.08;;;6.20;99.90;;;;;;5009052;28;20048;-72
2023/01/14 02:51:39;;;;;;;19.58;2.53;;;6.10;99.90;;;;;;5009297;28;20659;-74
2023/01/14 02:54:05;;;;;;;18.48;2.65;;;6.20;99.90;;;;;;5008761;28;20114;-75
2023/01/14 02:56:32;;;;;;;11.60;3.25;;;6.10;99.90;;;;;;5009417;28;20034;-74
2023/01/14 02:59:24;;;;;;;19.92;3.08;;;6.10;99.90;;;;;;5009287;28;20556;-73
2023/01/14 03:02:02;;;;;;;18.35;2.63;;;6.20;99.90;;;;;;5001306;28;20038;-73
2023/01/14 03:04:47;;;;;;;11.85;1.67;;;6.20;99.90;;;;;;5008919;28;20049;-74
2023/01/14 03:07:26;;;;;;;12.30;1.98;;;6.10;99.90;;;;;;5008249;28;20661;-75
2023/01/14 03:10:21;;;;;;;22.40;2.15;;;6.10;99.90;;;;;;5008382;28;20124;-72
2023/01/14 03:12:59;;;;;;;12.55;2.78;;;6.10;99.90;;;;;;5007638;28;20060;-73
2023/01/14 03:15:28;;;;;;;15.43;1.95;;;6.10;99.90;;;;;;5006899;28;20132;-73
2023/01/14 03:18:07;;;;;;;15.90;2.08;;;6.10;99.90;;;;;;5010122;28;20030;-72
2023/01/14 03:20:37;;;;;;;17.20;2.67;;;6.10;99.90;;;;;;5004752;28;20088;-73
2023/01/14 03:23:12;;;;;;;17.65;2.67;;;6.10;99.90;;;;;;5009666;28;20033;-75
2023/01/14 03:25:43;;;;;;;11.27;1.77;;;6.10;99.90;;;;;;5000917;28;20038;-74
2023/01/14 03:28:14;;;;;;;19.95;2.58;;;6.10;99.90;;;;;;5007785;28;20128;-73
2023/01/14 03:30:45;;;;;;;24.27;4.32;;;6.20;99.90;;;;;;5008768;28;20060;-73
2023/01/14 03:33:18;;;;;;;29.50;4.05;;;6.10;99.90;;;;;;5008048;28;20120;-73
2023/01/14 03:35:47;;;;;;;25.45;3.13;;;6.10;99.90;;;;;;5008496;28;20137;-73
2023/01/14 03:38:18;;;;;;;19.85;2.92;;;6.10;99.90;;;;;;5009510;28;20038;-74
2023/01/14 03:40:46;;;;;;;19.38;3.60;;;6.10;99.90;;;;;;5009777;28;20038;-73
2023/01/14 03:43:27;;;;;;;14.55;2.63;;;6.10;99.90;;;;;;5009345;28;20037;-73
2023/01/14 03:45:52;;;;;;;20.42;2.70;;;6.10;99.90;;;;;;5007471;28;20045;-73
2023/01/14 03:48:18;;;;;;;15.50;2.38;;;6.00;99.90;;;;;;5024919;28;20498;-72
2023/01/14 03:50:51;;;;;;;19.90;2.38;;;6.00;99.90;;;;;;5007688;28;20053;-73
2023/01/14 03:53:25;;;;;;;19.65;3.63;;;6.00;99.90;;;;;;5008749;28;20046;-75
2023/01/14 03:56:01;;;;;;;25.67;3.63;;;6.00;99.90;;;;;;5008261;28;20038;-73
2023/01/14 03:58:29;;;;;;;17.85;2.85;;;6.00;99.90;;;;;;5008182;28;20048;-73
2023/01/14 04:01:08;;;;;;;12.43;2.75;;;6.10;99.90;;;;;;5007494;28;20037;-73
2023/01/14 04:03:35;;;;;;;18.75;3.03;;;6.00;99.90;;;;;;5007733;28;20410;-71
2023/01/14 04:06:01;;;;;;;17.20;4.13;;;6.10;99.90;;;;;;5007558;28;20036;-73
2023/01/14 04:08:26;;;;;;;26.35;4.20;;;6.10;99.90;;;;;;5006567;28;20510;-73
2023/01/14 04:10:52;;;;;;;30.30;4.00;;;6.10;99.90;;;;;;5008758;28;20038;-73
2023/01/14 04:16:03;;;;;;;17.75;3.60;;;6.10;99.90;;;;;;5005261;28;20449;-73
2023/01/14 04:18:29;;;;;;;18.60;2.65;;;6.10;99.90;;;;;;5007802;28;20041;-73
2023/01/14 04:20:54;;;;;;;18.20;3.05;;;6.10;99.90;;;;;;5008957;28;20038;-73
2023/01/14 04:23:20;;;;;;;13.10;2.90;;;6.10;99.90;;;;;;5007598;28;20044;-72
2023/01/14 04:25:46;;;;;;;25.33;3.55;;;6.10;99.90;;;;;;5008179;28;20068;-73
2023/01/14 04:28:11;;;;;;;19.55;3.13;;;6.10;99.90;;;;;;5008760;28;20107;-73
2023/01/14 04:30:37;;;;;;;23.23;3.65;;;6.10;99.90;;;;;;5006306;28;20045;-73
2023/01/14 04:33:03;;;;;;;23.40;4.57;;;6.10;99.90;;;;;;5005865;28;20022;-73
2023/01/14 04:35:29;;;;;;;25.80;2.80;;;6.10;99.90;;;;;;5015035;28;20401;-72
2023/01/14 04:37:54;;;;;;;26.15;3.92;;;6.10;99.90;;;;;;5008278;28;20065;-71
2023/01/14 04:40:22;;;;;;;19.95;4.30;;;6.20;99.90;;;;;;5024748;28;20042;-74
2023/01/14 04:42:49;;;;;;;14.18;2.85;;;6.20;99.90;;;;;;5006384;28;20121;-74
2023/01/14 04:45:16;;;;;;;19.98;2.38;;;6.20;99.90;;;;;;5008072;28;20103;-73
2023/01/14 04:47:42;;;;;;;14.70;2.53;;;6.20;99.90;;;;;;5007007;28;20046;-74
2023/01/14 04:52:53;;;;;;;21.55;2.80;;;6.20;99.90;;;;;;5003588;28;20528;-72
2023/01/14 04:55:19;;;;;;;15.27;3.13;;;6.30;99.90;;;;;;5008094;28;20033;-73
2023/01/14 04:57:44;;;;;;;25.17;4.50;;;6.20;99.90;;;;;;5005642;28;20406;-74
2023/01/14 05:00:11;;;;;;;29.73;3.90;;;6.20;99.90;;;;;;5006951;28;20038;-74
2023/01/14 05:02:36;;;;;;;20.42;3.42;;;6.20;99.90;;;;;;5006757;28;20111;-72
2023/01/14 05:05:02;;;;;;;19.63;2.53;;;6.20;99.90;;;;;;5009015;28;20550;-74
2023/01/14 05:07:28;;;;;;;20.13;3.33;;;6.20;99.90;;;;;;5011049;28;20129;-73
2023/01/14 05:09:54;;;;;;;20.15;3.50;;;6.20;99.90;;;;;;5008246;28;20181;-73
2023/01/14 05:12:19;;;;;;;19.80;3.28;;;6.30;99.90;;;;;;5006710;28;20030;-73
2023/01/14 05:14:45;;;;;;;18.30;4.22;;;6.30;99.90;;;;;;5002330;28;20112;-72
2023/01/14 05:17:10;;;;;;;18.45;3.75;;;6.30;99.90;;;;;;5007910;28;20022;-74
2023/01/14 05:19:36;;;;;;;21.50;3.75;;;6.30;99.90;;;;;;5006876;28;20034;-74
2023/01/14 05:22:01;;;;;;;15.63;3.08;;;6.30;99.90;;;;;;5007819;28;20932;-72
2023/01/14 05:24:27;;;;;;;19.23;3.58;;;6.30;99.90;;;;;;5006639;28;20041;-73
2023/01/14 05:26:53;;;;;;;19.10;2.90;;;6.30;99.90;;;;;;5000892;28;20092;-74
2023/01/14 05:29:18;;;;;;;19.88;3.85;;;6.30;99.90;;;;;;5023236;28;20109;-74
2023/01/14 05:31:46;;;;;;;18.25;3.22;;;6.40;99.90;;;;;;5006299;28;20498;-73
2023/01/14 05:34:12;;;;;;;20.25;2.85;;;6.40;99.90;;;;;;5005787;28;20041;-73
2023/01/14 05:36:37;;;;;;;12.75;2.55;;;6.50;99.90;;;;;;5021742;28;20041;-73
2023/01/14 05:39:03;;;;;;;15.65;1.50;;;6.50;99.90;;;;;;5009417;28;20044;-73
2023/01/14 05:41:28;;;;;;;22.10;2.75;;;6.50;99.90;;;;;;5006731;28;20667;-72
2023/01/14 05:46:38;;;;;;;16.35;2.53;;;6.50;99.90;;;;;;5006722;28;20052;-73
2023/01/14 05:49:03;;;;;;;13.85;2.28;;;6.60;99.90;;;;;;5007518;28;20038;-75
2023/01/14 05:51:29;;;;;;;20.80;4.15;;;6.60;99.90;;;;;;5006927;28;20042;-74
2023/01/14 05:53:54;;;;;;;23.38;4.32;;;6.70;99.90;;;;;;5009607;28;20041;-74
2023/01/14 05:56:20;;;;;;;17.70;2.33;;;6.70;99.90;;;;;;5011141;28;20133;-71
2023/01/14 05:58:46;;;;;;;19.50;2.40;;;6.70;99.90;;;;;;5009528;28;20041;-73
2023/01/14 06:06:49;;;;;;;16.70;2.83;;;6.90;99.90;;;;;;5010241;28;20066;-72
2023/01/14 06:09:17;;;;;;;17.77;3.00;;;6.90;99.90;;;;;;5011021;28;20048;-73
2023/01/14 06:11:50;;;;;;;19.85;3.70;;;6.90;99.90;;;;;;5008634;28;20125;-72
2023/01/14 06:14:16;;;;;;;18.33;3.45;;;6.90;99.90;;;;;;5010168;28;20040;-73
2023/01/14 06:16:42;;;;;;;18.42;2.10;;;6.90;99.90;;;;;;5010309;28;20460;-73
2023/01/14 06:19:09;;;;;;;24.17;3.60;;;6.90;99.90;;;;;;5011318;28;20087;-71
2023/01/14 06:21:36;;;;;;;19.15;2.72;;;6.90;99.90;;;;;;5009498;28;20042;-72
2023/01/14 06:24:02;;;;;;;14.05;2.45;;;6.90;99.90;;;;;;5010316;28;20036;-73
2023/01/14 06:26:28;;;;;;;15.25;2.78;;;6.90;99.90;;;;;;5009938;28;20120;-74
2023/01/14 06:29:03;;;;;;;22.77;3.30;;;6.90;99.90;;;;;;5010339;28;20038;-73
2023/01/14 06:31:29;;;;;;;14.20;2.80;;;6.80;99.90;;;;;;5005729;28;20042;-74
2023/01/14 06:33:55;;;;;;;13.60;2.60;;;6.70;99.90;;;;;;5008341;28;20041;-73
2023/01/14 06:36:21;;;;;;;13.07;2.28;;;6.80;99.90;;;;;;5008647;28;20136;-73
2023/01/14 06:38:47;;;;;;;16.63;1.90;;;6.80;99.90;;;;;;5009248;28;20060;-73
2023/01/14 06:41:12;;;;;;;20.25;1.92;;;6.70;99.90;;;;;;5025414;28;20365;-72
2023/01/14 06:43:41;;;;;;;9.57;2.08;;;6.80;99.90;;;;;;5007136;28;20041;-73
2023/01/14 06:46:11;;;;;;;21.38;3.50;;;6.70;99.90;;;;;;5009741;28;20080;-71
2023/01/14 06:48:37;;;;;;;11.80;1.80;;;6.70;99.90;;;;;;5007701;28;20050;-71
2023/01/14 06:51:05;;;;;;;22.35;4.43;;;6.70;99.90;;;;;;5008578;28;20038;-72
2023/01/14 06:53:30;;;;;;;17.95;2.03;;;6.70;99.90;;;;;;5007421;28;20030;-75
2023/01/14 06:56:00;;;;;;;16.73;2.40;;;6.60;99.90;;;;;;5009206;28;20034;-72
2023/01/14 06:58:26;;;;;;;11.55;2.35;;;6.60;99.90;;;;;;5008766;28;20030;-73
2023/01/14 07:00:55;;;;;;;12.95;1.50;;;6.60;99.90;;;;;;5010037;28;20041;-75
2023/01/14 07:03:20;;;;;;;18.77;2.38;;;6.60;99.90;;;;;;5006823;28;20116;-73
2023/01/14 07:05:46;;;;;;;18.55;2.05;;;6.60;99.90;;;;;;5009201;28;20402;-72
2023/01/14 07:08:11;;;;;;;22.48;3.38;;;6.60;99.90;;;;;;5010309;28;20038;-72
2023/01/14 07:10:37;;;;;;;14.60;2.75;;;6.60;99.90;;;;;;5008795;28;20053;-72
2023/01/14 07:13:02;;;;;;;23.48;3.00;;;6.60;99.90;;;;;;5009524;28;20061;-72
2023/01/14 07:15:28;;;;;;;12.30;2.08;;;6.60;99.90;;;;;;5009048;28;20428;-71
2023/01/14 07:17:54;;;;;;;18.70;2.50;;;6.60;99.90;;;;;;5010179;28;20327;-71
2023/01/14 07:20:19;;;;;;;23.25;2.33;;;6.60;99.90;;;;;;5008136;28;20099;-73
2023/01/14 07:22:45;;;;;;;15.23;3.15;;;6.50;99.90;;;;;;5009067;28;20473;-71
2023/01/14 07:25:11;;;;;;;14.00;2.15;;;6.50;99.90;;;;;;5009533;28;20034;-73
2023/01/14 07:27:36;;;;;;;15.23;2.63;;;6.50;99.90;;;;;;5010346;28;20040;-71
2023/01/14 07:30:03;;;;;;;16.35;2.13;;;6.50;99.90;;;;;;5008135;28;20121;-71
2023/01/14 07:32:31;;;;;;;15.68;2.85;;;6.60;99.90;;;;;;5007385;28;20034;-70
2023/01/14 07:34:56;;;;;;;14.07;2.35;;;6.50;99.90;;;;;;5007934;28;20038;-71
2023/01/14 07:37:22;;;;;;;17.35;3.35;;;6.50;99.90;;;;;;5008488;28;20108;-71
2023/01/14 07:39:47;;;;;;;13.73;1.88;;;6.60;99.90;;;;;;5009781;28;20022;-70
2023/01/14 07:42:17;;;;;;;20.23;2.95;;;6.60;99.90;;;;;;5008335;28;20401;-71
2023/01/14 07:44:43;;;;;;;14.98;2.45;;;6.50;99.90;;;;;;5007200;28;20454;-70
2023/01/14 07:47:11;;;;;;;19.45;1.58;;;6.60;99.90;;;;;;5010711;28;20394;-70
2023/01/14 07:49:39;;;;;;;12.65;1.73;;;6.60;99.90;;;;;;5009072;28;20030;-70
2023/01/14 07:52:05;;;;;;;15.20;3.60;;;6.60;99.90;;;;;;5009183;28;20045;-71
2023/01/14 07:54:31;;;;;;;16.05;2.78;;;6.60;99.90;;;;;;5008095;28;20092;-70
2023/01/14 07:56:57;;;;;;;18.13;2.20;;;6.60;99.90;;;;;;5008571;28;20498;-71
2023/01/14 07:59:22;;;;;;;11.13;2.25;;;6.60;99.90;;;;;;5004572;28;20037;-69
2023/01/14 08:01:48;;;;;;;14.63;1.83;;;6.70;99.90;;;;;;5007804;28;20033;-71
2023/01/14 08:04:13;;;;;;;12.45;1.80;;;6.70;99.90;;;;;;5007460;28;20580;-70
2023/01/14 08:06:39;;;;;;;10.55;2.00;;;6.70;99.90;;;;;;5006651;28;20141;-69
2023/01/14 08:09:05;;;;;;;18.95;1.92;;;6.70;99.90;;;;;;5007378;28;20042;-71
2023/01/14 08:11:33;;;;;;;7.63;1.80;;;6.70;99.90;;;;;;5002954;28;20069;-70
2023/01/14 08:13:58;;;;;;;11.80;1.55;;;6.70;99.90;;;;;;5005608;28;20048;-71
2023/01/14 08:16:24;;;;;;;12.48;2.47;;;6.80;99.90;;;;;;5006966;28;20556;-71
2023/01/14 08:18:50;;;;;;;14.27;1.77;;;6.80;99.90;;;;;;5007210;28;20058;-70
2023/01/14 08:21:15;;;;;;;7.22;1.67;;;6.80;99.90;;;;;;5004929;28;20030;-71
2023/01/14 08:23:41;;;;;;;7.75;2.20;;;6.80;99.90;;;;;;5005754;28;20495;-70
2023/01/14 08:26:10;;;;;;;10.23;1.40;;;6.80;99.90;;;;;;5010977;28;20033;-70
2023/01/14 08:28:37;;;;;;;10.00;2.15;;;6.90;99.90;;;;;;5005134;28;20068;-71
2023/01/14 08:31:07;;;;;;;13.55;1.95;;;6.90;99.90;;;;;;5007242;28;20038;-70
2023/01/14 08:33:33;;;;;;;9.10;2.17;;;6.90;99.90;;;;;;5006377;28;20368;-71
2023/01/14 08:36:06;;;;;;;15.27;1.75;;;7.00;99.90;;;;;;5005558;28;20037;-70
2023/01/14 08:38:44;;;;;;;7.28;1.65;;;7.00;99.90;;;;;;5006493;28;20506;-70
2023/01/14 08:41:12;;;;;;;9.07;1.30;;;7.00;99.90;;;;;;5008038;28;20029;-70
2023/01/14 08:43:39;;;;;;;9.40;1.90;;;7.00;99.90;;;;;;5005040;28;20434;-71
2023/01/14 08:46:05;;;;;;;6.20;2.03;;;7.10;99.90;;;;;;5007079;28;20049;-71
2023/01/14 08:48:32;;;;;;;4.10;1.23;;;7.10;99.90;;;;;;5024440;28;20064;-71
2023/01/14 08:51:04;;;;;;;8.68;1.60;;;7.20;99.90;;;;;;5007420;28;20069;-70
2023/01/14 08:53:31;;;;;;;6.78;1.67;;;7.10;99.90;;;;;;5005716;28;20515;-72
2023/01/14 08:55:57;;;;;;;10.50;1.67;;;7.20;99.90;;;;;;5010781;28;20033;-71
2023/01/14 08:58:24;;;;;;;6.35;2.22;;;7.20;99.90;;;;;;5007103;28;20061;-71
2023/01/14 09:00:57;;;;;;;3.78;1.55;;;7.20;99.90;;;;;;5006987;28;20034;-71
2023/01/14 09:03:25;;;;;;;6.82;1.70;;;7.20;99.90;;;;;;5008761;28;20124;-71
2023/01/14 09:05:55;;;;;;;8.15;1.85;;;7.20;99.90;;;;;;5002337;28;20500;-71
2023/01/14 09:19:22;;;;;;;10.23;1.70;;;7.40;99.90;;;;;;5004165;28;20061;-71
2023/01/14 09:21:48;;;;;;;6.68;1.63;;;7.40;99.90;;;;;;5006392;28;20504;-71
2023/01/14 09:24:14;;;;;;;9.60;1.63;;;7.40;99.90;;;;;;4998017;28;20554;-70
2023/01/14 09:26:39;;;;;;;12.93;1.98;;;7.50;99.90;;;;;;5007525;28;20479;-71
2023/01/14 09:29:05;;;;;;;8.50;1.67;;;7.50;99.90;;;;;;5008259;28;20034;-71
2023/01/14 09:31:30;;;;;;;4.80;1.80;;;7.50;99.90;;;;;;5005913;28;20149;-71
2023/01/14 09:33:56;;;;;;;4.03;1.20;;;7.50;99.90;;;;;;4999427;28;20103;-71
2023/01/14 09:36:21;;;;;;;12.88;1.58;;;7.50;99.90;;;;;;4998269;28;20466;-69
2023/01/14 09:38:47;;;;;;;10.02;1.80;;;7.50;99.90;;;;;;4996107;28;20127;-72
2023/01/14 09:41:34;;;;;;;11.77;1.83;;;7.50;99.90;;;;;;5000847;28;20030;-70
2023/01/14 09:44:02;;;;;;;6.90;1.60;;;7.60;99.90;;;;;;5001141;28;20088;-70
2023/01/14 09:46:30;;;;;;;9.57;1.55;;;7.60;99.90;;;;;;4999114;28;20062;-68
2023/01/14 09:48:59;;;;;;;4.78;1.25;;;7.60;99.90;;;;;;4996243;28;20062;-69
2023/01/14 09:51:44;;;;;;;8.30;2.10;;;7.60;99.90;;;;;;4998387;28;20387;-71
2023/01/14 09:54:26;;;;;;;8.57;1.40;;;7.70;99.90;;;;;;5016796;28;20042;-71
2023/01/14 09:57:00;;;;;;;8.27;1.20;;;7.60;99.90;;;;;;4997173;28;20038;-71
2023/01/14 09:59:42;;;;;;;8.35;1.58;;;7.70;99.90;;;;;;4997285;28;20038;-71
2023/01/14 10:02:40;;;;;;;6.85;0.95;;;7.70;99.90;;;;;;4998939;28;20552;-70
2023/01/14 10:05:22;;;;;;;7.07;1.05;;;7.70;99.90;;;;;;4997837;28;20130;-71
2023/01/14 10:07:49;;;;;;;5.70;1.70;;;7.80;99.90;;;;;;5001656;28;20038;-70
2023/01/14 10:10:30;;;;;;;4.47;1.05;;;7.80;99.90;;;;;;5000781;28;20030;-70
2023/01/14 10:12:57;;;;;;;;;;;7.80;99.90;;;;;;5004468;28;20059;-69
2023/01/14 10:15:41;;;;;;;6.25;1.23;;;7.90;99.90;;;;;;4999043;28;19910;-71
2023/01/14 10:18:15;;;;;;;8.95;1.70;;;7.80;99.90;;;;;;5004104;28;20160;-70
2023/01/14 10:21:03;;;;;;;7.18;1.33;;;7.90;99.90;;;;;;4996277;28;20040;-70
2023/01/14 10:23:36;;;;;;;6.82;1.38;;;7.90;99.90;;;;;;4997766;28;20483;-69
2023/01/14 10:26:19;;;;;;;11.13;1.50;;;8.00;99.90;;;;;;5001209;28;20030;-72
2023/01/14 10:28:48;;;;;;;5.50;0.73;;;8.00;99.90;;;;;;5016460;28;20030;-70
2023/01/14 10:31:32;;;;;;;4.07;1.20;;;8.00;99.90;;;;;;4996564;28;20037;-71
2023/01/14 10:33:58;;;;;;;9.18;1.05;;;8.10;99.90;;;;;;4983942;28;20066;-71
2023/01/14 10:36:29;;;;;;;16.10;2.22;;;8.10;99.90;;;;;;4997193;28;20042;-72
2023/01/14 10:38:55;;;;;;;4.68;1.02;;;8.20;99.90;;;;;;5005964;28;20022;-71
2023/01/14 10:41:48;;;;;;;7.25;0.80;;;8.20;99.90;;;;;;5006621;28;20066;-71
2023/01/14 10:44:28;;;;;;;5.43;1.33;;;8.20;99.90;;;;;;4976201;28;20026;-70
2023/01/14 10:46:59;;;;;;;6.50;1.40;;;8.20;99.90;;;;;;4977988;28;20043;-72
2023/01/14 10:49:37;;;;;;;6.25;1.42;;;8.30;99.90;;;;;;4975335;28;20047;-70
2023/01/14 10:52:34;;;;;;;7.35;0.70;;;8.30;99.90;;;;;;4989032;28;20100;-71
2023/01/14 10:54:59;;;;;;;3.53;0.70;;;8.40;99.90;;;;;;4974855;28;20039;-70
2023/01/14 10:57:27;;;;;;;3.63;0.70;;;8.40;99.90;;;;;;4978100;28;20038;-71
2023/01/14 10:59:56;;;;;;;10.88;1.20;;;8.40;99.90;;;;;;4976396;28;20041;-72
2023/01/14 11:02:32;;;;;;;8.30;1.70;;;8.50;99.90;;;;;;4974105;28;20039;-73
2023/01/14 11:04:58;;;;;;;9.23;0.80;;;8.50;99.90;;;;;;4992682;28;20061;-72
2023/01/14 11:07:32;;;;;;;3.15;0.63;;;8.50;99.90;;;;;;4973929;28;20152;-72
2023/01/14 11:10:01;;;;;;;3.92;0.70;;;8.60;99.90;;;;;;4977304;28;20045;-72
2023/01/14 11:12:30;;;;;;;3.13;0.95;;;8.60;99.90;;;;;;4979394;28;20037;-72
2023/01/14 11:14:56;;;;;;;3.40;0.60;;;8.60;99.90;;;;;;4978301;28;20117;-72
2023/01/14 11:17:30;;;;;;;2.28;0.90;;;8.60;99.90;;;;;;4973706;28;20285;-72
2023/01/14 11:20:20;;;;;;;2.67;0.40;;;8.70;99.90;;;;;;5009444;28;20018;-71
2023/01/14 11:22:55;;;;;;;4.75;0.70;;;8.70;99.90;;;;;;5006468;28;20034;-69
2023/01/14 11:25:24;;;;;;;3.50;0.57;;;8.70;99.90;;;;;;5007746;28;20367;-72
2023/01/14 11:27:51;;;;;;;2.47;0.60;;;8.80;99.90;;;;;;5025054;28;20045;-71
2023/01/14 11:30:18;;;;;;;1.25;0.60;;;8.80;99.90;;;;;;5009699;28;20125;-71
2023/01/14 11:32:50;;;;;;;2.35;1.00;;;8.90;99.90;;;;;;5008496;28;20033;-70
2023/01/14 11:35:26;;;;;;;2.00;0.50;;;8.90;99.90;;;;;;5007323;28;20042;-69
2023/01/14 11:37:56;;;;;;;2.83;0.40;;;9.00;99.90;;;;;;5007567;28;20129;-70
2023/01/14 11:40:21;;;;;;;1.70;0.47;;;9.00;99.90;;;;;;5007432;28;20033;-70
2023/01/14 11:42:47;;;;;;;1.50;0.40;;;9.00;99.90;;;;;;5008690;28;20367;-72
2023/01/14 11:45:13;;;;;;;2.35;0.40;;;9.00;99.90;;;;;;5008572;28;20038;-71
2023/01/14 11:47:53;;;;;;;3.55;0.30;;;9.10;99.90;;;;;;5011232;28;20042;-70
2023/01/14 11:50:20;;;;;;;1.63;0.60;;;9.10;99.90;;;;;;4994554;28;20038;-69
2023/01/14 11:53:18;;;;;;;4.05;0.95;;;9.10;99.90;;;;;;5017304;28;20029;-70
2023/01/14 11:55:49;;;;;;;2.58;0.40;;;9.20;99.90;;;;;;5000958;28;20080;-70
2023/01/14 11:58:14;;;;;;;;;;;9.30;99.90;;;;;;5008693;28;20032;-71
2023/01/14 12:00:43;;;;;;;1.02;0.32;;;9.20;99.90;;;;;;5014915;28;19913;-71
2023/01/14 12:03:23;;;;;;;1.70;0.63;;;9.20;99.90;;;;;;5011541;28;20040;-71
2023/01/14 12:05:52;;;;;;;4.05;0.43;;;9.30;99.90;;;;;;4997268;28;20114;-71
2023/01/14 12:08:28;;;;;;;3.20;0.60;;;9.30;99.90;;;;;;5023239;28;20042;-70
2023/01/14 12:10:59;;;;;;;2.85;0.32;;;9.30;99.90;;;;;;4995247;28;20105;-71
2023/01/14 12:19:30;;;;;;;4.07;0.82;;;9.40;99.90;;;;;;5007601;28;19925;-71
2023/01/14 12:22:00;;;;;;;3.33;1.50;;;9.40;99.90;;;;;;4999893;28;20104;-71
2023/01/14 12:24:43;;;;;;;0.57;0.20;;;9.50;99.90;;;;;;5004682;28;20038;-70
2023/01/14 12:27:43;;;;;;;2.95;0.95;;;9.40;99.90;;;;;;5004877;28;20030;-71
2023/01/14 12:30:09;;;;;;;3.08;0.25;;;9.50;99.90;;;;;;5013689;28;20033;-72
2023/01/14 12:32:37;;;;;;;3.58;0.45;;;9.50;99.90;;;;;;4991247;28;20047;-71
2023/01/14 12:35:04;;;;;;;2.05;0.45;;;9.50;99.90;;;;;;4984403;28;20096;-71
2023/01/14 12:37:41;;;;;;;1.65;0.50;;;9.60;99.90;;;;;;4986077;28;20542;-71
2023/01/14 12:46:22;;;;;;;2.67;0.68;;;9.60;99.90;;;;;;4997757;28;20107;-71
2023/01/14 12:48:48;;;;;;;0.80;0.35;;;9.60;99.90;;;;;;5000058;28;20038;-71
2023/01/14 12:51:19;;;;;;;1.67;0.40;;;9.70;99.90;;;;;;5002095;28;20045;-72
2023/01/14 12:53:50;;;;;;;1.95;0.43;;;9.70;99.90;;;;;;4998518;28;20037;-71
2023/01/14 12:56:25;;;;;;;4.35;0.77;;;9.70;99.90;;;;;;5006048;28;20532;-71
2023/01/14 12:59:01;;;;;;;1.02;0.30;;;9.70;99.90;;;;;;5002916;28;20060;-72
2023/01/14 13:01:34;;;;;;;0.25;0.25;;;9.70;99.90;;;;;;5016075;28;20037;-72
2023/01/14 13:04:05;;;;;;;1.95;0.30;;;9.70;99.90;;;;;;5002180;28;20149;-71
2023/01/14 13:06:38;;;;;;;5.97;0.35;;;9.70;99.90;;;;;;5005636;28;20512;-70
2023/01/14 13:09:17;;;;;;;3.03;0.32;;;9.70;99.90;;;;;;5007887;28;20068;-71
2023/01/14 13:11:45;;;;;;;3.53;0.30;;;9.80;99.90;;;;;;5007941;28;20046;-73
2023/01/14 13:14:33;;;;;;;10.75;1.52;;;9.80;99.90;;;;;;5006767;28;20040;-74
2023/01/14 13:17:02;;;;;;;1.77;0.20;;;9.80;99.90;;;;;;5005258;28;20038;-73
2023/01/14 13:19:33;;;;;;;2.42;0.35;;;9.80;99.90;;;;;;5008569;28;20041;-73
2023/01/14 13:22:02;;;;;;;2.63;0.30;;;9.90;99.90;;;;;;5008268;28;20117;-73
2023/01/14 13:24:32;;;;;;;0.65;0.45;;;9.90;99.90;;;;;;5009456;28;20049;-72
2023/01/14 13:27:01;;;;;;;3.55;0.82;;;9.90;99.90;;;;;;5009681;28;20048;-74
2023/01/14 13:29:30;;;;;;;2.40;0.22;;;9.90;99.90;;;;;;5007747;28;20034;-74
2023/01/14 13:31:58;;;;;;;1.70;0.73;;;10.00;99.90;;;;;;5008137;28;20046;-73
2023/01/14 13:34:23;;;;;;;1.60;0.60;;;9.90;99.90;;;;;;5007853;28;20089;-74
2023/01/14 13:37:04;;;;;;;1.17;0.45;;;10.00;99.90;;;;;;5006356;28;20049;-74
2023/01/14 13:39:31;;;;;;;1.00;0.40;;;10.00;99.90;;;;;;5007201;28;20042;-72
2023/01/14 13:41:59;;;;;;;3.53;0.50;;;10.00;99.90;;;;;;5007105;28;20071;-73